Wetterdaten: Woche 27.03.17 - 02.04.17 (KW13)
Datum Zeit Temp. Aussen Temp. o. S. +5cm Feuchte Auss BlattFeu 1 Luftdruck Regen Sonnenschein Regendauer Solar Windben Empfang
27.03.2017 00:00 8,6 C 7,8 C 4,6 C 75 % 0 lf 1023,0 hPa 0,0 l/m 0,00 h 0,00 h 4 W/m 7,7 km/h (2 Bft) 93,25 %
27.03.2017 01:00 7,4 C 5,3 C 2,6 C 76 % 0 lf 1022,9 hPa 0,0 l/m 0,00 h 0,00 h 5 W/m 3,6 km/h (1 Bft) 87,97 %
27.03.2017 02:00 5,9 C 3,9 C 1,9 C 80 % 0 lf 1022,9 hPa 0,0 l/m 0,00 h 0,00 h 5 W/m 0,1 km/h (0 Bft) 85,77 %
27.03.2017 03:00 4,8 C 3,2 C 1,2 C 82 % 0 lf 1022,9 hPa 0,0 l/m 0,00 h 0,00 h 3 W/m 1,2 km/h (1 Bft) 89,47 %
27.03.2017 04:00 4,0 C 3,0 C 0,9 C 85 % 0 lf 1022,7 hPa 0,0 l/m 0,00 h 0,00 h 4 W/m 4,8 km/h (1 Bft) 90,79 %
27.03.2017 05:00 3,4 C 2,9 C 0,6 C 87 % 0 lf 1022,7 hPa 0,0 l/m 0,00 h 0,00 h 4 W/m 3,6 km/h (1 Bft) 86,04 %
27.03.2017 06:00 3,1 C 3,3 C 0,2 C 88 % 0 lf 1022,9 hPa 0,0 l/m 0,00 h 0,00 h 0 W/m 6,4 km/h (2 Bft) 87,26 %
27.03.2017 07:00 3,3 C 4,6 C 0,7 C 89 % 0 lf 1023,2 hPa 0,0 l/m 0,37 h 0,00 h 19 W/m 6,9 km/h (2 Bft) 91,58 %
27.03.2017 08:00 4,8 C 9,3 C 3,3 C 86 % 0 lf 1023,5 hPa 0,0 l/m 1,00 h 0,00 h 143 W/m 8,7 km/h (2 Bft) 93,10 %
27.03.2017 09:00 9,0 C 16,0 C 8,2 C 70 % 0 lf 1023,6 hPa 0,0 l/m 1,00 h 0,00 h 315 W/m 17,1 km/h (3 Bft) 95,01 %
27.03.2017 10:00 11,6 C 17,4 C 14,4 C 59 % 0 lf 1023,7 hPa 0,0 l/m 1,00 h 0,00 h 479 W/m 22,6 km/h (4 Bft) 96,67 %
27.03.2017 11:00 13,3 C 19,3 C 18,5 C 55 % 0 lf 1023,7 hPa 0,0 l/m 0,98 h 0,00 h 618 W/m 20,2 km/h (4 Bft) 93,35 %
27.03.2017 12:00 15,2 C 21,3 C 18,0 C 49 % 0 lf 1023,4 hPa 0,0 l/m 1,00 h 0,00 h 676 W/m 18,7 km/h (3 Bft) 96,65 %
27.03.2017 13:00 16,2 C 21,8 C 15,2 C 44 % 0 lf 1023,1 hPa 0,0 l/m 1,00 h 0,00 h 710 W/m 26,0 km/h (4 Bft) 97,14 %
27.03.2017 14:00 17,1 C 22,7 C 15,1 C 41 % 0 lf 1022,4 hPa 0,0 l/m 1,00 h 0,00 h 704 W/m 23,9 km/h (4 Bft) 93,23 %
27.03.2017 15:00 17,9 C 23,7 C 18,2 C 39 % 0 lf 1021,4 hPa 0,0 l/m 1,00 h 0,00 h 613 W/m 23,8 km/h (4 Bft) 97,86 %
27.03.2017 16:00 18,7 C 23,5 C 16,7 C 38 % 0 lf 1020,5 hPa 0,0 l/m 1,00 h 0,00 h 505 W/m 22,7 km/h (4 Bft) 96,14 %
27.03.2017 17:00 19,0 C 23,4 C 16,3 C 35 % 0 lf 1019,8 hPa 0,0 l/m 1,00 h 0,00 h 358 W/m 21,1 km/h (4 Bft) 94,52 %
27.03.2017 18:00 19,0 C 20,7 C 15,0 C 35 % 0 lf 1019,5 hPa 0,0 l/m 1,00 h 0,00 h 170 W/m 14,7 km/h (3 Bft) 98,72 %
27.03.2017 19:00 17,9 C 16,5 C 11,9 C 37 % 0 lf 1019,4 hPa 0,0 l/m 0,77 h 0,00 h 40 W/m 9,7 km/h (2 Bft) 94,38 %
27.03.2017 20:00 14,9 C 11,8 C 6,7 C 46 % 0 lf 1019,8 hPa 0,0 l/m 0,00 h 0,00 h 5 W/m 3,1 km/h (1 Bft) 96,44 %
27.03.2017 21:00 11,6 C 9,6 C 5,3 C 55 % 0 lf 1020,2 hPa 0,0 l/m 0,00 h 0,00 h 3 W/m 6,1 km/h (2 Bft) 97,58 %
27.03.2017 22:00 11,0 C 11,9 C 6,7 C 51 % 0 lf 1020,3 hPa 0,0 l/m 0,00 h 0,00 h 4 W/m 9,9 km/h (2 Bft) 97,16 %
27.03.2017 23:00 11,3 C 11,1 C 5,9 C 52 % 0 lf 1020,3 hPa 0,0 l/m 0,00 h 0,00 h 5 W/m 8,2 km/h (2 Bft) 92,96 %
28.03.2017 00:00 10,6 C 10,3 C 6,1 C 54 % 0 lf 1020,1 hPa 0,0 l/m 0,00 h 0,00 h 5 W/m 8,8 km/h (2 Bft) 98,30 %
28.03.2017 01:00 9,7 C 8,9 C 4,6 C 57 % 0 lf 1020,1 hPa 0,0 l/m 0,00 h 0,00 h 5 W/m 7,0 km/h (2 Bft) 95,29 %
28.03.2017 02:00 8,4 C 7,4 C 3,3 C 62 % 0 lf 1020,2 hPa 0,0 l/m 0,00 h 0,00 h 5 W/m 5,5 km/h (1 Bft) 96,23 %
28.03.2017 03:00 7,3 C 7,2 C 3,9 C 66 % 0 lf 1019,8 hPa 0,0 l/m 0,00 h 0,00 h 5 W/m 8,2 km/h (2 Bft) 95,94 %
28.03.2017 04:00 7,1 C 7,1 C 4,2 C 68 % 0 lf 1019,4 hPa 0,0 l/m 0,00 h 0,00 h 5 W/m 8,0 km/h (2 Bft) 95,73 %
28.03.2017 05:00 6,7 C 6,5 C 3,8 C 70 % 0 lf 1019,3 hPa 0,0 l/m 0,00 h 0,00 h 5 W/m 8,1 km/h (2 Bft) 96,16 %
28.03.2017 06:00 6,1 C 5,9 C 2,9 C 73 % 0 lf 1019,3 hPa 0,0 l/m 0,00 h 0,00 h 0 W/m 6,6 km/h (2 Bft) 98,16 %
28.03.2017 07:00 5,6 C 5,8 C 3,2 C 75 % 0 lf 1019,5 hPa 0,0 l/m 0,40 h 0,00 h 21 W/m 8,3 km/h (2 Bft) 92,65 %
28.03.2017 08:00 6,1 C 8,7 C 4,8 C 76 % 0 lf 1019,8 hPa 0,0 l/m 1,00 h 0,00 h 137 W/m 10,6 km/h (2 Bft) 97,60 %
28.03.2017 09:00 9,4 C 15,5 C 9,0 C 71 % 0 lf 1019,9 hPa 0,0 l/m 1,00 h 0,00 h 326 W/m 11,5 km/h (2 Bft) 96,43 %
28.03.2017 10:00 13,3 C 20,9 C 17,3 C 64 % 0 lf 1020,1 hPa 0,0 l/m 1,00 h 0,00 h 483 W/m 9,2 km/h (2 Bft) 96,03 %
28.03.2017 11:00 16,7 C 27,4 C 21,4 C 59 % 0 lf 1020,3 hPa 0,0 l/m 1,00 h 0,00 h 606 W/m 12,2 km/h (2 Bft) 95,49 %
28.03.2017 12:00 19,1 C 30,3 C 21,5 C 53 % 0 lf 1020,4 hPa 0,0 l/m 1,00 h 0,00 h 691 W/m 11,5 km/h (2 Bft) 97,40 %
28.03.2017 13:00 20,6 C 29,7 C 19,6 C 50 % 0 lf 1020,1 hPa 0,0 l/m 1,00 h 0,00 h 695 W/m 17,2 km/h (3 Bft) 94,49 %
28.03.2017 14:00 21,3 C 29,3 C 19,7 C 48 % 0 lf 1019,9 hPa 0,0 l/m 1,00 h 0,00 h 684 W/m 21,5 km/h (4 Bft) 97,06 %
28.03.2017 15:00 21,5 C 27,7 C 21,4 C 48 % 0 lf 1019,6 hPa 0,0 l/m 0,87 h 0,00 h 532 W/m 19,0 km/h (3 Bft) 97,71 %
28.03.2017 16:00 21,3 C 26,9 C 19,8 C 48 % 0 lf 1019,4 hPa 0,0 l/m 0,87 h 0,00 h 423 W/m 18,1 km/h (3 Bft) 92,51 %
28.03.2017 17:00 20,7 C 24,5 C 18,9 C 49 % 0 lf 1019,5 hPa 0,0 l/m 0,82 h 0,00 h 310 W/m 20,7 km/h (4 Bft) 98,32 %
28.03.2017 18:00 19,9 C 20,8 C 17,2 C 52 % 0 lf 1019,5 hPa 0,0 l/m 0,70 h 0,00 h 131 W/m 14,1 km/h (3 Bft) 96,15 %
28.03.2017 19:00 18,6 C 17,9 C 14,9 C 55 % 0 lf 1019,7 hPa 0,0 l/m 0,37 h 0,00 h 37 W/m 13,5 km/h (3 Bft) 94,20 %
28.03.2017 20:00 16,7 C 14,5 C 10,4 C 60 % 0 lf 1020,0 hPa 0,0 l/m 0,00 h 0,00 h 6 W/m 5,9 km/h (2 Bft) 97,23 %
28.03.2017 21:00 14,9 C 14,7 C 11,6 C 63 % 0 lf 1020,6 hPa 0,0 l/m 0,00 h 0,00 h 0 W/m 13,2 km/h (3 Bft) 96,11 %
28.03.2017 22:00 15,0 C 14,6 C 12,3 C 65 % 0 lf 1021,3 hPa 0,0 l/m 0,00 h 0,00 h 0 W/m 16,0 km/h (3 Bft) 95,78 %
28.03.2017 23:00 14,2 C 13,2 C 10,6 C 71 % 0 lf 1022,1 hPa 0,0 l/m 0,00 h 0,00 h 5 W/m 11,5 km/h (2 Bft) 95,79 %
29.03.2017 00:00 12,8 C 10,7 C 7,7 C 74 % 0 lf 1022,3 hPa 0,0 l/m 0,00 h 0,00 h 4 W/m 6,2 km/h (2 Bft) 94,96 %
29.03.2017 01:00 11,4 C 10,6 C 8,1 C 81 % 0 lf 1022,5 hPa 0,0 l/m 0,00 h 0,00 h 0 W/m 10,8 km/h (2 Bft) 97,51 %
29.03.2017 02:00 11,1 C 10,7 C 8,6 C 83 % 0 lf 1022,5 hPa 0,0 l/m 0,00 h 0,00 h 0 W/m 11,5 km/h (2 Bft) 97,82 %
29.03.2017 03:00 10,9 C 10,8 C 8,7 C 83 % 0 lf 1022,6 hPa 0,0 l/m 0,00 h 0,00 h 0 W/m 11,3 km/h (2 Bft) 93,64 %
29.03.2017 04:00 10,8 C 10,4 C 8,5 C 84 % 0 lf 1022,6 hPa 0,0 l/m 0,00 h 0,00 h 0 W/m 10,9 km/h (2 Bft) 96,56 %
29.03.2017 05:00 10,2 C 9,8 C 7,9 C 86 % 0 lf 1022,6 hPa 0,0 l/m 0,00 h 0,00 h 0 W/m 9,8 km/h (2 Bft) 98,30 %
29.03.2017 06:00 10,1 C 10,1 C 8,1 C 87 % 0 lf 1022,4 hPa 0,0 l/m 0,00 h 0,00 h 0 W/m 13,1 km/h (3 Bft) 93,92 %
29.03.2017 07:00 10,0 C 10,0 C 8,2 C 87 % 0 lf 1022,6 hPa 0,0 l/m 0,20 h 0,00 h 19 W/m 14,9 km/h (3 Bft) 96,76 %
29.03.2017 08:00 10,5 C 11,7 C 10,0 C 86 % 0 lf 1023,0 hPa 0,0 l/m 0,23 h 0,00 h 84 W/m 15,9 km/h (3 Bft) 96,24 %
29.03.2017 09:00 12,0 C 14,4 C 12,1 C 82 % 0 lf 1023,2 hPa 0,0 l/m 0,60 h 0,10 h 190 W/m 20,5 km/h (4 Bft) 94,52 %
29.03.2017 10:00 13,7 C 16,9 C 14,7 C 77 % 0 lf 1023,5 hPa 0,0 l/m 0,97 h 0,00 h 312 W/m 26,2 km/h (4 Bft) 97,65 %
29.03.2017 11:00 14,2 C 16,2 C 15,1 C 74 % 0 lf 1023,9 hPa 0,0 l/m 0,27 h 0,00 h 253 W/m 26,1 km/h (4 Bft) 95,66 %
29.03.2017 12:00 14,1 C 15,5 C 14,8 C 77 % 0 lf 1024,2 hPa 0,0 l/m 0,07 h 0,00 h 244 W/m 28,6 km/h (4 Bft) 94,60 %
29.03.2017 13:00 14,5 C 18,9 C 16,0 C 79 % 0 lf 1024,0 hPa 0,0 l/m 0,73 h 0,00 h 489 W/m 27,7 km/h (4 Bft) 98,79 %
29.03.2017 14:00 15,8 C 18,7 C 17,1 C 73 % 0 lf 1023,6 hPa 0,0 l/m 0,70 h 0,00 h 365 W/m 30,0 km/h (5 Bft) 94,56 %
29.03.2017 15:00 15,9 C 16,8 C 15,9 C 70 % 0 lf 1023,2 hPa 0,0 l/m 0,00 h 0,00 h 160 W/m 26,4 km/h (4 Bft) 96,66 %
29.03.2017 16:00 15,8 C 16,4 C 15,2 C 70 % 0 lf 1023,0 hPa 0,0 l/m 0,00 h 0,00 h 104 W/m 21,8 km/h (4 Bft) 97,36 %
29.03.2017 17:00 15,5 C 16,0 C 14,7 C 75 % 0 lf 1022,9 hPa 0,0 l/m 0,00 h 0,00 h 93 W/m 20,8 km/h (4 Bft) 95,87 %
29.03.2017 18:00 15,1 C 15,3 C 13,8 C 76 % 0 lf 1023,1 hPa 0,0 l/m 0,00 h 0,00 h 39 W/m 16,6 km/h (3 Bft) 95,03 %
29.03.2017 19:00 14,8 C 14,7 C 13,0 C 76 % 0 lf 1023,6 hPa 0,0 l/m 0,00 h 0,00 h 14 W/m 12,2 km/h (2 Bft) 97,93 %
29.03.2017 20:00 14,4 C 14,1 C 12,3 C 77 % 0 lf 1023,9 hPa 0,0 l/m 0,00 h 0,00 h 5 W/m 9,2 km/h (2 Bft) 96,16 %
29.03.2017 21:00 14,2 C 14,2 C 12,2 C 78 % 0 lf 1024,3 hPa 0,0 l/m 0,00 h 0,00 h 0 W/m 9,4 km/h (2 Bft) 95,37 %
29.03.2017 22:00 14,2 C 14,2 C 12,2 C 78 % 0 lf 1024,6 hPa 0,0 l/m 0,00 h 0,00 h 0 W/m 10,5 km/h (2 Bft) 95,65 %
29.03.2017 23:00 14,2 C 14,2 C 12,2 C 78 % 0 lf 1024,7 hPa 0,0 l/m 0,00 h 0,00 h 0 W/m 9,4 km/h (2 Bft) 97,59 %
30.03.2017 00:00 14,2 C 14,4 C 12,2 C 77 % 0 lf 1024,7 hPa 0,0 l/m 0,00 h 0,00 h 0 W/m 11,0 km/h (2 Bft) 95,53 %
30.03.2017 01:00 13,8 C 13,2 C 10,7 C 77 % 0 lf 1024,7 hPa 0,0 l/m 0,00 h 0,00 h 0 W/m 10,5 km/h (2 Bft) 95,30 %
30.03.2017 02:00 12,9 C 12,3 C 9,9 C 79 % 0 lf 1024,7 hPa 0,0 l/m 0,00 h 0,00 h 0 W/m 8,7 km/h (2 Bft) 96,79 %
30.03.2017 03:00 12,2 C 12,3 C 10,3 C 82 % 0 lf 1024,5 hPa 0,0 l/m 0,00 h 0,00 h 0 W/m 8,7 km/h (2 Bft) 97,08 %
30.03.2017 04:00 12,3 C 12,8 C 10,6 C 82 % 0 lf 1024,3 hPa 0,0 l/m 0,00 h 0,00 h 0 W/m 7,6 km/h (2 Bft) 95,95 %
30.03.2017 05:00 12,4 C 12,4 C 10,5 C 82 % 0 lf 1024,2 hPa 0,0 l/m 0,00 h 0,00 h 0 W/m 7,3 km/h (2 Bft) 95,80 %
30.03.2017 06:00 12,0 C 11,9 C 9,3 C 82 % 0 lf 1024,0 hPa 0,0 l/m 0,00 h 0,00 h 0 W/m 8,1 km/h (2 Bft) 96,45 %
30.03.2017 07:00 11,6 C 11,7 C 9,4 C 84 % 0 lf 1024,0 hPa 0,0 l/m 0,00 h 0,00 h 20 W/m 6,7 km/h (2 Bft) 95,83 %
30.03.2017 08:00 11,5 C 13,0 C 10,4 C 86 % 0 lf 1024,2 hPa 0,0 l/m 0,47 h 0,00 h 117 W/m 8,8 km/h (2 Bft) 96,27 %
30.03.2017 09:00 12,8 C 14,7 C 13,2 C 84 % 0 lf 1024,3 hPa 0,0 l/m 0,20 h 0,00 h 163 W/m 9,9 km/h (2 Bft) 96,09 %
30.03.2017 10:00 14,9 C 19,1 C 17,6 C 79 % 0 lf 1024,3 hPa 0,0 l/m 0,93 h 0,00 h 289 W/m 9,5 km/h (2 Bft) 96,30 %
30.03.2017 11:00 18,8 C 25,4 C 22,4 C 66 % 0 lf 1024,1 hPa 0,0 l/m 1,00 h 0,00 h 478 W/m 16,5 km/h (3 Bft) 97,01 %
30.03.2017 12:00 20,7 C 27,0 C 22,1 C 58 % 0 lf 1023,7 hPa 0,0 l/m 0,97 h 0,00 h 587 W/m 20,5 km/h (4 Bft) 94,34 %
30.03.2017 13:00 22,1 C 28,6 C 21,5 C 53 % 0 lf 1023,2 hPa 0,0 l/m 1,00 h 0,00 h 705 W/m 23,3 km/h (4 Bft) 97,87 %
30.03.2017 14:00 22,7 C 29,2 C 21,3 C 51 % 0 lf 1022,7 hPa 0,0 l/m 0,80 h 0,00 h 576 W/m 21,4 km/h (4 Bft) 96,66 %
30.03.2017 15:00 22,6 C 27,3 C 23,2 C 52 % 0 lf 1022,0 hPa 0,0 l/m 0,53 h 0,00 h 423 W/m 15,0 km/h (3 Bft) 93,66 %
30.03.2017 16:00 23,2 C 28,6 C 22,6 C 51 % 0 lf 1021,3 hPa 0,0 l/m 0,97 h 0,00 h 502 W/m 15,1 km/h (3 Bft) 97,16 %
30.03.2017 17:00 23,2 C 26,4 C 21,4 C 50 % 0 lf 1020,7 hPa 0,0 l/m 1,00 h 0,00 h 354 W/m 14,8 km/h (3 Bft) 98,37 %
30.03.2017 18:00 22,5 C 23,3 C 19,6 C 51 % 0 lf 1020,2 hPa 0,0 l/m 0,63 h 0,00 h 141 W/m 13,2 km/h (3 Bft) 93,06 %
30.03.2017 19:00 21,2 C 20,2 C 15,7 C 54 % 0 lf 1020,0 hPa 0,0 l/m 0,13 h 0,00 h 36 W/m 6,5 km/h (2 Bft) 97,98 %
30.03.2017 20:00 19,4 C 17,8 C 12,3 C 59 % 0 lf 1019,8 hPa 0,0 l/m 0,00 h 0,00 h 6 W/m 6,2 km/h (2 Bft) 97,29 %
30.03.2017 21:00 17,5 C 16,7 C 12,4 C 64 % 0 lf 1019,8 hPa 0,0 l/m 0,00 h 0,00 h 0 W/m 8,5 km/h (2 Bft) 94,61 %
30.03.2017 22:00 16,5 C 15,9 C 12,3 C 67 % 0 lf 1019,5 hPa 0,0 l/m 0,00 h 0,00 h 0 W/m 8,5 km/h (2 Bft) 96,98 %
30.03.2017 23:00 15,3 C 14,6 C 11,0 C 69 % 0 lf 1019,1 hPa 0,0 l/m 0,00 h 0,00 h 0 W/m 8,4 km/h (2 Bft) 97,18 %
31.03.2017 00:00 14,4 C 13,7 C 10,6 C 72 % 0 lf 1018,8 hPa 0,0 l/m 0,00 h 0,00 h 0 W/m 7,7 km/h (2 Bft) 95,33 %
31.03.2017 01:00 13,4 C 12,8 C 9,7 C 75 % 0 lf 1018,1 hPa 0,0 l/m 0,00 h 0,00 h 4 W/m 7,8 km/h (2 Bft) 96,37 %
31.03.2017 02:00 12,8 C 12,7 C 10,0 C 78 % 0 lf 1017,3 hPa 0,0 l/m 0,00 h 0,00 h 5 W/m 10,1 km/h (2 Bft) 95,65 %
31.03.2017 03:00 12,6 C 12,6 C 10,1 C 79 % 0 lf 1016,5 hPa 0,0 l/m 0,00 h 0,00 h 5 W/m 15,8 km/h (3 Bft) 97,01 %
31.03.2017 04:00 12,3 C 12,2 C 10,0 C 80 % 0 lf 1015,5 hPa 0,0 l/m 0,00 h 0,00 h 5 W/m 17,2 km/h (3 Bft) 96,79 %
31.03.2017 05:00 12,0 C 12,0 C 9,9 C 82 % 0 lf 1014,7 hPa 0,0 l/m 0,00 h 0,00 h 5 W/m 15,2 km/h (3 Bft) 94,37 %
31.03.2017 06:00 11,7 C 11,7 C 9,5 C 82 % 0 lf 1014,1 hPa 0,0 l/m 0,00 h 0,00 h 5 W/m 16,6 km/h (3 Bft) 95,95 %
31.03.2017 07:00 11,5 C 11,7 C 9,4 C 82 % 0 lf 1013,7 hPa 0,0 l/m 0,00 h 0,00 h 19 W/m 18,9 km/h (3 Bft) 98,87 %
31.03.2017 08:00 11,6 C 12,5 C 10,2 C 83 % 0 lf 1013,4 hPa 0,0 l/m 0,10 h 0,00 h 86 W/m 18,8 km/h (3 Bft) 93,57 %
31.03.2017 09:00 13,1 C 16,1 C 12,9 C 80 % 0 lf 1013,1 hPa 0,0 l/m 0,93 h 0,00 h 252 W/m 18,2 km/h (3 Bft) 96,42 %
31.03.2017 10:00 16,0 C 20,7 C 19,0 C 73 % 0 lf 1012,9 hPa 0,0 l/m 1,00 h 0,00 h 434 W/m 18,1 km/h (3 Bft) 97,41 %
31.03.2017 11:00 19,5 C 25,2 C 24,3 C 62 % 0 lf 1012,8 hPa 0,0 l/m 1,00 h 0,00 h 525 W/m 15,4 km/h (3 Bft) 96,29 %
31.03.2017 12:00 22,0 C 27,6 C 24,7 C 53 % 0 lf 1012,3 hPa 0,0 l/m 0,97 h 0,00 h 632 W/m 16,9 km/h (3 Bft) 95,61 %
31.03.2017 13:00 23,8 C 30,1 C 23,1 C 48 % 0 lf 1011,6 hPa 0,0 l/m 1,00 h 0,00 h 676 W/m 17,8 km/h (3 Bft) 97,29 %
31.03.2017 14:00 24,2 C 29,0 C 23,0 C 46 % 0 lf 1011,3 hPa 0,0 l/m 1,00 h 0,00 h 593 W/m 23,1 km/h (4 Bft) 96,79 %
31.03.2017 15:00 24,3 C 28,6 C 24,9 C 45 % 0 lf 1011,0 hPa 0,0 l/m 1,00 h 0,00 h 531 W/m 22,4 km/h (4 Bft) 94,29 %
31.03.2017 16:00 23,9 C 26,4 C 22,6 C 44 % 0 lf 1010,6 hPa 0,0 l/m 0,67 h 0,00 h 281 W/m 21,7 km/h (4 Bft) 96,44 %
31.03.2017 17:00 23,0 C 24,5 C 21,2 C 48 % 0 lf 1010,6 hPa 0,0 l/m 0,47 h 0,00 h 207 W/m 24,6 km/h (4 Bft) 97,94 %
31.03.2017 18:00 20,7 C 21,0 C 18,8 C 54 % 0 lf 1011,0 hPa 0,0 l/m 0,43 h 0,00 h 106 W/m 19,5 km/h (3 Bft) 94,22 %
31.03.2017 19:00 18,8 C 18,3 C 16,4 C 61 % 0 lf 1011,4 hPa 0,0 l/m 0,00 h 0,00 h 32 W/m 22,2 km/h (4 Bft) 96,52 %
31.03.2017 20:00 17,1 C 16,6 C 14,7 C 67 % 2 lf 1011,6 hPa 0,0 l/m 0,00 h 0,20 h 2 W/m 15,6 km/h (3 Bft) 98,29 %
31.03.2017 21:00 16,3 C 15,8 C 13,9 C 71 % 1 lf 1011,9 hPa 0,0 l/m 0,00 h 0,20 h 0 W/m 12,3 km/h (3 Bft) 94,02 %
31.03.2017 22:00 15,8 C 15,6 C 13,4 C 72 % 0 lf 1012,0 hPa 0,0 l/m 0,00 h 0,13 h 0 W/m 8,6 km/h (2 Bft) 96,37 %
31.03.2017 23:00 15,5 C 15,5 C 13,0 C 72 % 0 lf 1012,0 hPa 0,0 l/m 0,00 h 0,00 h 0 W/m 6,2 km/h (2 Bft) 97,44 %
01.04.2017 00:00 15,1 C 14,6 C 12,4 C 74 % 0 lf 1012,0 hPa 0,0 l/m 0,00 h 0,00 h 0 W/m 8,5 km/h (2 Bft) 94,77 %
01.04.2017 01:00 14,8 C 14,4 C 12,1 C 75 % 0 lf 1011,8 hPa 0,0 l/m 0,00 h 0,00 h 0 W/m 8,3 km/h (2 Bft) 96,58 %
01.04.2017 02:00 14,2 C 13,6 C 10,9 C 77 % 0 lf 1011,6 hPa 0,0 l/m 0,00 h 0,00 h 2 W/m 7,5 km/h (2 Bft) 96,08 %
01.04.2017 03:00 13,6 C 13,1 C 11,1 C 79 % 0 lf 1011,2 hPa 0,0 l/m 0,00 h 0,10 h 2 W/m 6,9 km/h (2 Bft) 95,38 %
01.04.2017 04:00 13,3 C 13,1 C 10,9 C 81 % 0 lf 1010,9 hPa 0,0 l/m 0,00 h 0,00 h 2 W/m 2,0 km/h (1 Bft) 97,44 %
01.04.2017 05:00 13,0 C 12,8 C 10,7 C 82 % 0 lf 1010,8 hPa 0,0 l/m 0,00 h 0,00 h 2 W/m 2,6 km/h (1 Bft) 96,22 %
01.04.2017 06:00 12,8 C 12,2 C 9,9 C 83 % 0 lf 1010,4 hPa 0,0 l/m 0,00 h 0,00 h 2 W/m 0,6 km/h (0 Bft) 94,27 %
01.04.2017 07:00 12,3 C 12,3 C 10,4 C 86 % 0 lf 1010,3 hPa 0,0 l/m 0,03 h 0,00 h 20 W/m 4,3 km/h (1 Bft) 98,67 %
01.04.2017 08:00 12,5 C 14,4 C 12,0 C 87 % 0 lf 1010,3 hPa 0,0 l/m 1,00 h 0,00 h 142 W/m 7,0 km/h (2 Bft) 96,01 %
01.04.2017 09:00 13,7 C 14,9 C 13,8 C 83 % 0 lf 1010,4 hPa 0,0 l/m 0,03 h 0,13 h 114 W/m 5,4 km/h (1 Bft) 95,86 %
01.04.2017 10:00 14,2 C 13,1 C 12,1 C 84 % 10 lf 1011,0 hPa 1,0 l/m 0,00 h 0,83 h 73 W/m 9,6 km/h (2 Bft) 96,58 %
01.04.2017 11:00 13,3 C 13,3 C 12,2 C 90 % 15 lf 1011,3 hPa 0,4 l/m 0,00 h 0,97 h 186 W/m 8,2 km/h (2 Bft) 96,94 %
01.04.2017 12:00 13,5 C 13,1 C 12,2 C 91 % 15 lf 1011,4 hPa 0,4 l/m 0,00 h 1,00 h 144 W/m 8,0 km/h (2 Bft) 95,73 %
01.04.2017 13:00 13,7 C 13,7 C 13,0 C 91 % 12 lf 1011,2 hPa 0,0 l/m 0,10 h 0,43 h 210 W/m 10,1 km/h (2 Bft) 96,16 %
01.04.2017 14:00 14,9 C 17,1 C 15,2 C 85 % 0 lf 1011,0 hPa 0,0 l/m 0,40 h 0,00 h 340 W/m 12,1 km/h (2 Bft) 96,08 %
01.04.2017 15:00 15,6 C 18,4 C 17,0 C 79 % 0 lf 1010,6 hPa 0,0 l/m 0,83 h 0,00 h 553 W/m 12,8 km/h (3 Bft) 97,36 %
01.04.2017 16:00 16,5 C 18,5 C 16,7 C 74 % 0 lf 1010,3 hPa 0,0 l/m 0,43 h 0,03 h 291 W/m 12,0 km/h (2 Bft) 95,52 %
01.04.2017 17:00 15,4 C 15,3 C 13,8 C 80 % 4 lf 1010,6 hPa 0,2 l/m 0,17 h 0,10 h 148 W/m 15,7 km/h (3 Bft) 96,44 %
01.04.2017 18:00 13,8 C 13,5 C 12,1 C 86 % 8 lf 1011,1 hPa 0,0 l/m 0,00 h 0,63 h 69 W/m 12,6 km/h (3 Bft) 95,74 %
01.04.2017 19:00 12,8 C 12,1 C 10,4 C 88 % 14 lf 1011,7 hPa 0,0 l/m 0,00 h 0,27 h 31 W/m 9,0 km/h (2 Bft) 97,08 %
01.04.2017 20:00 12,0 C 11,2 C 9,5 C 89 % 15 lf 1012,1 hPa 0,2 l/m 0,00 h 0,33 h 0 W/m 7,6 km/h (2 Bft) 94,23 %
01.04.2017 21:00 11,4 C 11,1 C 9,4 C 90 % 2 lf 1012,8 hPa 0,0 l/m 0,00 h 0,00 h 0 W/m 11,0 km/h (2 Bft) 96,80 %
01.04.2017 22:00 10,9 C 10,3 C 9,1 C 90 % 8 lf 1013,2 hPa 0,2 l/m 0,00 h 0,43 h 0 W/m 3,6 km/h (1 Bft) 96,02 %
01.04.2017 23:00 10,6 C 9,6 C 8,8 C 92 % 15 lf 1013,5 hPa 0,4 l/m 0,00 h 0,37 h 0 W/m 1,7 km/h (1 Bft) 98,36 %
02.04.2017 00:00 10,2 C 9,3 C 8,1 C 92 % 15 lf 1013,6 hPa 0,0 l/m 0,00 h 0,00 h 0 W/m 1,3 km/h (1 Bft) 94,33 %
02.04.2017 01:00 9,6 C 8,8 C 7,2 C 93 % 15 lf 1013,9 hPa 0,0 l/m 0,00 h 0,00 h 2 W/m 2,9 km/h (1 Bft) 95,80 %
02.04.2017 02:00 9,3 C 8,8 C 7,7 C 94 % 15 lf 1014,1 hPa 0,0 l/m 0,00 h 0,00 h 0 W/m 5,0 km/h (1 Bft) 98,01 %
02.04.2017 03:00 9,1 C 8,5 C 7,3 C 94 % 15 lf 1014,3 hPa 0,0 l/m 0,00 h 0,00 h 0 W/m 5,0 km/h (1 Bft) 94,88 %
02.04.2017 04:00 8,9 C 8,8 C 7,3 C 95 % 15 lf 1014,7 hPa 0,0 l/m 0,00 h 0,00 h 0 W/m 4,8 km/h (1 Bft) 97,16 %
02.04.2017 05:00 8,9 C 8,9 C 7,4 C 95 % 8 lf 1015,2 hPa 0,0 l/m 0,00 h 0,00 h 0 W/m 7,1 km/h (2 Bft) 95,44 %
02.04.2017 06:00 8,9 C 8,4 C 7,2 C 95 % 1 lf 1015,7 hPa 0,0 l/m 0,00 h 0,00 h 0 W/m 3,4 km/h (1 Bft) 95,51 %
02.04.2017 07:00 8,8 C 8,3 C 6,8 C 95 % 2 lf 1016,5 hPa 0,0 l/m 0,00 h 0,00 h 13 W/m 3,4 km/h (1 Bft) 97,79 %
02.04.2017 08:00 8,5 C 9,6 C 6,6 C 95 % 3 lf 1017,3 hPa 0,0 l/m 0,37 h 0,00 h 90 W/m 4,1 km/h (1 Bft) 96,01 %
02.04.2017 09:00 10,1 C 18,2 C 8,8 C 96 % 0 lf 1018,1 hPa 0,0 l/m 1,00 h 0,00 h 315 W/m 8,0 km/h (2 Bft) 93,29 %
02.04.2017 10:00 12,8 C 23,2 C 14,8 C 88 % 0 lf 1018,7 hPa 0,0 l/m 1,00 h 0,00 h 462 W/m 7,1 km/h (2 Bft) 98,24 %
02.04.2017 11:00 15,0 C 26,3 C 19,8 C 79 % 0 lf 1019,3 hPa 0,0 l/m 1,00 h 0,00 h 614 W/m 9,1 km/h (2 Bft) 94,98 %
02.04.2017 12:00 17,0 C 27,6 C 20,2 C 69 % 0 lf 1019,5 hPa 0,0 l/m 0,97 h 0,00 h 714 W/m 12,9 km/h (3 Bft) 94,93 %
02.04.2017 13:00 17,6 C 26,9 C 17,5 C 63 % 0 lf 1019,5 hPa 0,0 l/m 0,80 h 0,00 h 611 W/m 13,7 km/h (3 Bft) 98,29 %
02.04.2017 14:00 17,8 C 24,5 C 16,5 C 58 % 0 lf 1019,6 hPa 0,0 l/m 0,60 h 0,00 h 495 W/m 12,6 km/h (3 Bft) 95,09 %
02.04.2017 15:00 17,7 C 23,6 C 17,9 C 57 % 0 lf 1019,8 hPa 0,0 l/m 0,37 h 0,00 h 361 W/m 10,5 km/h (2 Bft) 96,17 %
02.04.2017 16:00 16,9 C 21,2 C 15,8 C 58 % 0 lf 1020,0 hPa 0,0 l/m 0,33 h 0,00 h 239 W/m 9,2 km/h (2 Bft) 97,72 %
02.04.2017 17:00 17,5 C 21,9 C 16,2 C 54 % 0 lf 1020,3 hPa 0,0 l/m 0,57 h 0,00 h 268 W/m 11,9 km/h (2 Bft) 95,31 %
02.04.2017 18:00 17,3 C 18,7 C 14,4 C 55 % 0 lf 1020,5 hPa 0,0 l/m 0,63 h 0,00 h 144 W/m 8,7 km/h (2 Bft) 94,60 %
02.04.2017 19:00 16,4 C 14,8 C 11,3 C 59 % 0 lf 1020,9 hPa 0,0 l/m 0,00 h 0,00 h 23 W/m 5,3 km/h (1 Bft) 98,66 %
02.04.2017 20:00 14,4 C 12,3 C 9,2 C 67 % 0 lf 1021,7 hPa 0,0 l/m 0,00 h 0,00 h 3 W/m 7,6 km/h (2 Bft) 95,52 %
02.04.2017 21:00 12,7 C 10,4 C 7,5 C 74 % 0 lf 1022,6 hPa 0,0 l/m 0,00 h 0,00 h 4 W/m 4,2 km/h (1 Bft) 94,80 %
02.04.2017 22:00 11,2 C 9,5 C 7,0 C 78 % 0 lf 1023,2 hPa 0,0 l/m 0,00 h 0,00 h 3 W/m 6,4 km/h (2 Bft) 97,21 %
02.04.2017 23:00 10,2 C 8,3 C 6,0 C 81 % 0 lf 1023,9 hPa 0,0 l/m 0,00 h 0,00 h 1 W/m 5,0 km/h (1 Bft) 95,31 %
Min-Datum _ 28.03.17 27.03.17 27.03.17 27.03.17 27.03.17 01.04.17 - - - - 27.03.17 27.03.17
_ Min-Zeit 21:10 03:24 06:00 17:14 00:00 06:38 - - - - 01:38 05:28
Minimum _ 2,2 C 2,8 C 0,0 C 34 % 0 lf 1010,2 hPa - - - - 0,0 km/h (0 Bft) 63,04 %
Max-Datum _ 31.03.17 28.03.17 31.03.17 02.04.17 31.03.17 29.03.17 01.04.17 27.03.17 29.03.17 28.03.17 29.03.17 27.03.17
_ Max-Zeit 14:06 12:10 15:16 08:56 20:52 23:44 10:34 07:38 09:12 14:32 12:20 00:14
Maximum _ 24,4 C 31,7 C 26,7 C 96 % 15 lf 1024,8 hPa 1,0 l/m 0,03 h 0,03 h 891 W/m 43,9 km/h
W-SW (6 Bft)
100,00 %
Durchschnitt _ 14,0 C 15,6 C 12,3 C 71 % 1 lf 1018,7 hPa #2,8 l/m #54:44 h #6:16 h 220 W/m 11,9 km/h (2 Bft) 95,79 %
© 2017 W. Hausmann